Terminal Aerodrome Forecast
Issued by NWS Jackson, KY

Home | Current Version | Previous Version | Text Only | Print | Product List | Glossary On
Versions: 1 2 3 4 5 6 7 8 9 10 11 12 13 14 15 16 17 18
000
FTUS43 KJKL 291720
TAFLOZ
TAF
KLOZ 291720Z 2918/3018 25004KT P6SM FEW090 BKN250
     FM300300 00000KT P6SM BKN090
     FM301000 05003KT 6SM BR VCSH BKN070
     FM301300 05005KT 5SM -SHRA BR BKN050=

USA.gov is the U.S. government's official web portal to all federal, state and local government web resources and services.